createdAt,value
2023-03-22T00:01:23.727Z,53.80
2023-03-22T00:03:52.546Z,52.60
2023-03-22T00:06:20.322Z,50.30
2023-03-22T00:08:51.608Z,53.50
2023-03-22T00:11:20.658Z,54.30
2023-03-22T00:13:48.407Z,53.80
2023-03-22T00:16:16.104Z,50.90
2023-03-22T00:18:43.778Z,47.30
2023-03-22T00:21:13.414Z,55.90
2023-03-22T00:23:41.131Z,46.40
2023-03-22T00:26:09.819Z,49.40
2023-03-22T00:28:37.673Z,50.70
2023-03-22T00:31:05.610Z,51.80
2023-03-22T00:33:33.273Z,52.70
2023-03-22T00:36:08.014Z,56.90
2023-03-22T00:38:43.791Z,56.60
2023-03-22T00:41:20.033Z,59.20
2023-03-22T00:43:47.673Z,72.30
2023-03-22T00:46:16.165Z,51.90
2023-03-22T00:48:43.941Z,53.80
2023-03-22T00:51:11.799Z,51.30
2023-03-22T00:53:42.898Z,52.60
2023-03-22T00:56:15.598Z,51.10
2023-03-22T00:58:43.770Z,48.50
2023-03-22T01:01:14.601Z,52.70
2023-03-22T01:03:43.104Z,49.50
2023-03-22T01:06:11.049Z,62.40
2023-03-22T01:08:39.444Z,49.30
2023-03-22T01:11:07.627Z,45.30
2023-03-22T01:13:37.558Z,48.10
2023-03-22T01:16:06.416Z,48.20
2023-03-22T01:18:34.602Z,48.60
2023-03-22T01:21:02.223Z,48.20
2023-03-22T01:23:29.914Z,48.20
2023-03-22T01:25:57.566Z,43.80
2023-03-22T01:28:27.064Z,42.80
2023-03-22T01:30:55.506Z,49.40
2023-03-22T01:33:23.248Z,41.70
2023-03-22T01:35:51.628Z,42.50
2023-03-22T01:38:19.648Z,40.40
2023-03-22T01:40:47.217Z,45.10
2023-03-22T01:43:15.691Z,42.90
2023-03-22T01:45:45.860Z,39.60
2023-03-22T01:48:18.517Z,41.50
2023-03-22T01:50:56.074Z,41.30
2023-03-22T01:53:25.379Z,49.70
2023-03-22T01:55:53.626Z,41.80
2023-03-22T01:58:21.283Z,41.30
2023-03-22T02:00:49.143Z,43.30
2023-03-22T02:03:18.068Z,42.00
2023-03-22T02:05:46.120Z,42.30
2023-03-22T02:08:15.093Z,41.80
2023-03-22T02:10:43.119Z,42.10
2023-03-22T02:13:22.964Z,38.40
2023-03-22T02:16:19.695Z,52.60
2023-03-22T02:19:30.642Z,43.10
2023-03-22T02:24:51.644Z,43.60
2023-03-22T02:27:52.946Z,43.80
2023-03-22T02:30:56.405Z,41.50
2023-03-22T02:33:46.508Z,41.90
2023-03-22T02:36:33.189Z,44.20
2023-03-22T02:39:31.877Z,51.10
2023-03-22T02:42:21.250Z,41.20
2023-03-22T02:45:09.633Z,42.80
2023-03-22T02:47:41.699Z,43.70
2023-03-22T02:50:29.389Z,43.70
2023-03-22T02:53:06.004Z,38.90
2023-03-22T02:55:37.995Z,38.10
2023-03-22T02:58:19.813Z,37.80
2023-03-22T03:00:49.488Z,55.10
2023-03-22T03:03:18.476Z,40.00
2023-03-22T03:05:49.100Z,40.70
2023-03-22T03:08:19.791Z,38.50
2023-03-22T03:10:47.416Z,41.80
2023-03-22T03:13:16.215Z,39.50
2023-03-22T03:15:45.287Z,41.20
2023-03-22T03:18:35.740Z,41.70
2023-03-22T03:21:25.711Z,59.00
2023-03-22T03:24:23.479Z,44.80
2023-03-22T03:27:20.390Z,44.40
2023-03-22T03:29:51.367Z,42.90
2023-03-22T03:32:25.663Z,45.50
2023-03-22T03:34:57.548Z,38.50
2023-03-22T03:37:52.935Z,37.20
2023-03-22T03:40:34.070Z,56.20
2023-03-22T03:43:04.903Z,46.00
2023-03-22T03:45:33.175Z,42.20
2023-03-22T03:48:02.827Z,45.60
2023-03-22T03:50:30.840Z,35.80
2023-03-22T03:52:59.101Z,38.10
2023-03-22T03:55:26.669Z,33.60
2023-03-22T03:57:54.266Z,40.30
2023-03-22T04:00:22.077Z,51.00
2023-03-22T04:02:49.635Z,47.40
2023-03-22T04:05:17.373Z,42.10
2023-03-22T04:07:44.972Z,40.90
2023-03-22T04:10:12.550Z,42.10
2023-03-22T04:12:40.228Z,37.30
2023-03-22T04:15:08.507Z,37.80
2023-03-22T04:17:36.156Z,35.30
2023-03-22T04:20:06.021Z,47.40
2023-03-22T04:22:38.426Z,43.70
2023-03-22T04:25:15.024Z,39.80
2023-03-22T04:27:42.659Z,34.60
2023-03-22T04:30:12.635Z,34.60
2023-03-22T04:32:40.230Z,39.00
2023-03-22T04:35:08.406Z,36.20
2023-03-22T04:37:36.573Z,29.70
2023-03-22T04:40:08.516Z,43.70
2023-03-22T04:42:36.551Z,37.80
2023-03-22T04:45:04.762Z,37.60
2023-03-22T04:47:32.306Z,33.50
2023-03-22T04:49:59.930Z,29.50
2023-03-22T04:52:27.494Z,29.00
2023-03-22T04:54:55.314Z,36.80
2023-03-22T04:57:22.903Z,38.80
2023-03-22T04:59:50.844Z,33.70
2023-03-22T05:02:18.393Z,36.10
2023-03-22T05:04:46.190Z,36.30
2023-03-22T05:07:13.952Z,33.10
2023-03-22T05:09:41.652Z,32.60
2023-03-22T05:12:09.254Z,32.20
2023-03-22T05:14:36.888Z,41.50
2023-03-22T05:17:04.605Z,36.70
2023-03-22T05:19:33.180Z,35.10
2023-03-22T05:22:02.029Z,33.20
2023-03-22T05:24:30.460Z,31.00
2023-03-22T05:27:01.171Z,30.90
2023-03-22T05:29:29.159Z,29.60
2023-03-22T05:31:56.724Z,41.60
2023-03-22T05:34:24.429Z,35.30
2023-03-22T05:36:52.086Z,31.40
2023-03-22T05:39:20.529Z,33.70
2023-03-22T05:41:48.379Z,32.50
2023-03-22T05:44:16.180Z,29.40
2023-03-22T05:46:43.773Z,30.90
2023-03-22T05:49:12.247Z,32.80
2023-03-22T05:51:42.118Z,34.10
2023-03-22T05:54:09.831Z,31.10
2023-03-22T05:56:37.522Z,25.10
2023-03-22T05:59:05.212Z,30.70
2023-03-22T06:01:33.536Z,27.90
2023-03-22T06:04:01.546Z,36.40
2023-03-22T06:06:29.249Z,33.20
2023-03-22T06:09:07.263Z,29.00
2023-03-22T06:11:41.951Z,32.90
2023-03-22T06:14:09.629Z,33.80
2023-03-22T06:16:37.341Z,34.50
2023-03-22T06:19:05.024Z,34.40
2023-03-22T06:21:32.688Z,25.20
2023-03-22T06:24:00.580Z,38.70
2023-03-22T06:26:28.337Z,33.80
2023-03-22T06:28:56.393Z,28.40
2023-03-22T06:31:23.983Z,33.20
2023-03-22T06:33:52.647Z,26.80
2023-03-22T06:36:21.700Z,34.50
2023-03-22T06:38:49.264Z,28.70
2023-03-22T06:41:16.934Z,32.40
2023-03-22T06:43:44.530Z,34.20
2023-03-22T06:46:12.207Z,37.90
2023-03-22T06:48:39.974Z,34.10
2023-03-22T06:51:07.755Z,33.90
2023-03-22T06:53:35.893Z,31.40
2023-03-22T06:56:03.762Z,32.50
2023-03-22T06:58:31.526Z,32.10
2023-03-22T07:00:59.345Z,28.30
2023-03-22T07:03:27.258Z,34.40
2023-03-22T07:06:04.479Z,31.80
2023-03-22T07:08:32.271Z,32.70
2023-03-22T07:10:59.892Z,39.60
2023-03-22T07:13:27.702Z,34.20
2023-03-22T07:15:59.535Z,34.80
2023-03-22T07:18:27.663Z,33.00
2023-03-22T07:20:55.520Z,29.50
2023-03-22T07:23:23.208Z,31.50
2023-03-22T07:25:52.084Z,27.80
2023-03-22T07:28:19.804Z,28.80
2023-03-22T07:30:47.395Z,27.30
2023-03-22T07:33:15.469Z,30.70
2023-03-22T07:35:43.144Z,30.90
2023-03-22T07:38:11.496Z,28.40
2023-03-22T07:40:39.593Z,28.40
2023-03-22T07:43:07.669Z,27.90
2023-03-22T07:45:35.783Z,27.40
2023-03-22T07:48:03.816Z,28.60
2023-03-22T07:50:31.587Z,30.80
2023-03-22T07:52:59.552Z,32.00
2023-03-22T07:55:27.116Z,31.10
2023-03-22T07:57:55.066Z,24.30
2023-03-22T08:00:23.465Z,27.00
2023-03-22T08:02:51.274Z,27.40
2023-03-22T08:05:18.927Z,25.50
2023-03-22T08:07:47.266Z,27.60
2023-03-22T08:10:14.864Z,27.00
2023-03-22T08:12:42.459Z,26.30
2023-03-22T08:15:10.562Z,26.30
2023-03-22T08:17:38.273Z,21.90
2023-03-22T08:20:09.758Z,23.90
2023-03-22T08:22:38.324Z,28.00
2023-03-22T08:25:07.212Z,30.70
2023-03-22T08:27:34.802Z,24.60
2023-03-22T08:30:02.782Z,28.90
2023-03-22T08:32:30.505Z,27.10
2023-03-22T08:34:58.075Z,26.70
2023-03-22T08:37:25.761Z,26.30
2023-03-22T08:39:53.357Z,28.60
2023-03-22T08:42:21.344Z,28.00
2023-03-22T08:44:49.453Z,26.00
2023-03-22T08:47:17.043Z,28.30
2023-03-22T08:49:45.104Z,26.60
2023-03-22T08:52:12.822Z,22.20
2023-03-22T08:54:40.431Z,24.20
2023-03-22T08:57:09.509Z,38.80
2023-03-22T08:59:37.293Z,22.60
2023-03-22T09:02:05.846Z,23.60
2023-03-22T09:04:33.630Z,17.80
2023-03-22T09:07:01.638Z,28.50
2023-03-22T09:09:29.238Z,18.00
2023-03-22T09:11:58.150Z,24.30
2023-03-22T09:14:25.847Z,19.90
2023-03-22T09:16:53.518Z,18.10
2023-03-22T09:19:21.151Z,24.80
2023-03-22T09:21:50.248Z,20.20
2023-03-22T09:24:18.405Z,20.80
2023-03-22T09:26:46.865Z,19.00
2023-03-22T09:29:14.521Z,24.40
2023-03-22T09:31:42.311Z,18.40
2023-03-22T09:34:09.935Z,20.00
2023-03-22T09:36:37.706Z,21.80
2023-03-22T09:39:07.231Z,21.10
2023-03-22T09:41:38.541Z,18.50
2023-03-22T09:44:18.505Z,18.70
2023-03-22T09:46:48.630Z,17.20
2023-03-22T09:49:18.326Z,18.40
2023-03-22T09:51:50.677Z,18.10
2023-03-22T09:54:33.703Z,18.50
2023-03-22T09:57:05.804Z,18.80
2023-03-22T09:59:50.584Z,19.50
2023-03-22T10:02:24.509Z,19.20
2023-03-22T10:05:18.479Z,14.80
2023-03-22T10:07:46.256Z,17.70
2023-03-22T10:10:21.060Z,16.90
2023-03-22T10:12:54.172Z,17.40
2023-03-22T10:15:37.091Z,15.70
2023-03-22T10:18:07.210Z,17.00
2023-03-22T10:20:40.570Z,17.50
2023-03-22T10:23:12.637Z,17.50
2023-03-22T10:25:41.189Z,27.20
2023-03-22T10:28:22.152Z,19.10
2023-03-22T10:30:56.930Z,20.10
2023-03-22T10:33:39.079Z,22.30
2023-03-22T10:36:10.692Z,19.10
2023-03-22T10:38:44.111Z,19.60
2023-03-22T10:41:12.545Z,35.40
2023-03-22T10:43:40.550Z,19.80
2023-03-22T10:46:13.679Z,16.30
2023-03-22T10:48:43.795Z,15.20
2023-03-22T10:51:16.430Z,15.90
2023-03-22T10:53:46.765Z,16.40
2023-03-22T10:56:16.054Z,18.00
2023-03-22T10:58:43.852Z,15.30
2023-03-22T11:01:13.433Z,17.70
2023-03-22T11:03:42.990Z,17.70
2023-03-22T11:06:23.732Z,14.60
2023-03-22T11:08:53.431Z,15.90
2023-03-22T11:11:32.482Z,17.80
2023-03-22T11:14:16.875Z,15.30
2023-03-22T11:16:55.910Z,17.00
2023-03-22T11:19:35.453Z,19.10
2023-03-22T11:22:05.098Z,15.80
2023-03-22T11:24:33.290Z,16.70
2023-03-22T11:27:08.656Z,20.20
2023-03-22T11:29:42.315Z,14.10
2023-03-22T11:32:38.791Z,20.50
2023-03-22T11:35:17.863Z,17.20
2023-03-22T11:37:47.719Z,22.40
2023-03-22T11:40:32.500Z,14.20
2023-03-22T11:43:18.061Z,14.30
2023-03-22T11:45:46.176Z,19.20
2023-03-22T11:48:19.316Z,12.30
2023-03-22T11:50:47.382Z,12.70
2023-03-22T11:53:20.601Z,44.00
2023-03-22T11:55:49.074Z,20.40
2023-03-22T11:58:39.186Z,27.70
2023-03-22T12:01:07.212Z,57.70
2023-03-22T12:03:39.046Z,23.00
2023-03-22T12:06:21.767Z,62.70
2023-03-22T12:08:58.634Z,15.60
2023-03-22T12:11:41.871Z,11.60
2023-03-22T12:14:21.990Z,39.00
2023-03-22T12:16:51.018Z,11.80
2023-03-22T12:19:46.570Z,9.10
2023-03-22T12:22:17.018Z,8.30
2023-03-22T12:24:44.615Z,9.20
2023-03-22T12:27:21.528Z,8.00
2023-03-22T12:29:53.852Z,7.70
2023-03-22T12:32:24.784Z,8.10
2023-03-22T12:34:55.005Z,6.70
2023-03-22T12:37:32.283Z,6.70
2023-03-22T12:40:27.249Z,9.70
2023-03-22T12:43:02.047Z,7.50
2023-03-22T12:45:31.596Z,8.80
2023-03-22T12:48:14.484Z,20.50
2023-03-22T12:50:44.814Z,8.50
2023-03-22T12:53:14.543Z,7.90
2023-03-22T12:55:42.389Z,8.90
2023-03-22T12:58:10.562Z,8.00
2023-03-22T13:00:47.958Z,9.20
2023-03-22T13:03:16.279Z,7.90
2023-03-22T13:05:45.007Z,8.10
2023-03-22T13:08:14.479Z,6.00
2023-03-22T13:10:58.516Z,6.70
2023-03-22T13:13:27.892Z,66.60
2023-03-22T13:16:02.811Z,19.30
2023-03-22T13:18:36.529Z,16.80
2023-03-22T13:21:21.271Z,6.30
2023-03-22T13:24:02.357Z,26.30
2023-03-22T13:26:32.670Z,8.20
2023-03-22T13:29:02.097Z,28.30
2023-03-22T13:31:52.305Z,14.40
2023-03-22T13:34:21.985Z,12.90
2023-03-22T13:36:51.751Z,61.60
2023-03-22T13:39:21.400Z,25.20
2023-03-22T13:41:49.987Z,16.60
2023-03-22T13:44:26.507Z,6.90
2023-03-22T13:46:57.240Z,6.50
2023-03-22T13:49:48.184Z,10.20
2023-03-22T13:52:25.532Z,12.00
2023-03-22T13:54:54.208Z,8.60
2023-03-22T13:58:01.868Z,6.00
2023-03-22T14:00:29.491Z,6.90
2023-03-22T14:03:18.233Z,7.60
2023-03-22T14:05:47.762Z,11.00
2023-03-22T14:08:22.099Z,28.00
2023-03-22T14:11:02.772Z,46.50
2023-03-22T14:13:32.153Z,7.30
2023-03-22T14:16:08.601Z,12.50
2023-03-22T14:18:37.212Z,7.30
2023-03-22T14:21:13.105Z,26.50
